sensor_id;sensor_type;location;lat;lon;timestamp;P1;durP1;ratioP1;P2;durP2;ratioP2
7049;SDS011;22263;52.260;10.548;2023-05-14T00:02:18;0.30;;;0.30;;
7049;SDS011;22263;52.260;10.548;2023-05-14T00:04:51;0.30;;;0.30;;
7049;SDS011;22263;52.260;10.548;2023-05-14T00:07:21;0.30;;;0.30;;
7049;SDS011;22263;52.260;10.548;2023-05-14T00:09:56;0.30;;;0.30;;
7049;SDS011;22263;52.260;10.548;2023-05-14T00:12:26;0.30;;;0.30;;
7049;SDS011;22263;52.260;10.548;2023-05-14T00:14:56;0.30;;;0.30;;
7049;SDS011;22263;52.260;10.548;2023-05-14T00:17:26;0.30;;;0.30;;
7049;SDS011;22263;52.260;10.548;2023-05-14T00:19:58;0.30;;;0.30;;
7049;SDS011;22263;52.260;10.548;2023-05-14T00:22:28;0.30;;;0.30;;
7049;SDS011;22263;52.260;10.548;2023-05-14T00:24:58;0.20;;;0.20;;
7049;SDS011;22263;52.260;10.548;2023-05-14T00:27:28;0.30;;;0.30;;
7049;SDS011;22263;52.260;10.548;2023-05-14T00:29:57;0.30;;;0.30;;
7049;SDS011;22263;52.260;10.548;2023-05-14T00:32:27;0.20;;;0.20;;
7049;SDS011;22263;52.260;10.548;2023-05-14T00:35:00;0.30;;;0.30;;
7049;SDS011;22263;52.260;10.548;2023-05-14T00:37:30;0.30;;;0.30;;
7049;SDS011;22263;52.260;10.548;2023-05-14T00:40:00;0.30;;;0.30;;
7049;SDS011;22263;52.260;10.548;2023-05-14T00:42:29;0.30;;;0.30;;
7049;SDS011;22263;52.260;10.548;2023-05-14T00:44:59;0.30;;;0.30;;
7049;SDS011;22263;52.260;10.548;2023-05-14T00:47:29;0.30;;;0.30;;
7049;SDS011;22263;52.260;10.548;2023-05-14T00:50:03;0.30;;;0.30;;
7049;SDS011;22263;52.260;10.548;2023-05-14T00:52:33;0.30;;;0.30;;
7049;SDS011;22263;52.260;10.548;2023-05-14T00:55:03;0.30;;;0.30;;
7049;SDS011;22263;52.260;10.548;2023-05-14T00:57:36;0.30;;;0.30;;
7049;SDS011;22263;52.260;10.548;2023-05-14T01:00:06;0.30;;;0.30;;
7049;SDS011;22263;52.260;10.548;2023-05-14T01:02:37;0.30;;;0.30;;
7049;SDS011;22263;52.260;10.548;2023-05-14T01:05:10;0.30;;;0.30;;
7049;SDS011;22263;52.260;10.548;2023-05-14T01:07:43;0.30;;;0.30;;
7049;SDS011;22263;52.260;10.548;2023-05-14T01:10:18;0.30;;;0.30;;
7049;SDS011;22263;52.260;10.548;2023-05-14T01:12:56;0.40;;;0.40;;
7049;SDS011;22263;52.260;10.548;2023-05-14T01:15:30;0.30;;;0.30;;
7049;SDS011;22263;52.260;10.548;2023-05-14T01:18:09;0.30;;;0.30;;
7049;SDS011;22263;52.260;10.548;2023-05-14T01:20:44;0.30;;;0.30;;
7049;SDS011;22263;52.260;10.548;2023-05-14T01:23:17;0.30;;;0.30;;
7049;SDS011;22263;52.260;10.548;2023-05-14T01:25:47;0.30;;;0.30;;
7049;SDS011;22263;52.260;10.548;2023-05-14T01:28:17;0.30;;;0.30;;
7049;SDS011;22263;52.260;10.548;2023-05-14T01:30:51;0.30;;;0.30;;
7049;SDS011;22263;52.260;10.548;2023-05-14T01:33:26;0.30;;;0.30;;
7049;SDS011;22263;52.260;10.548;2023-05-14T01:35:58;0.30;;;0.30;;
7049;SDS011;22263;52.260;10.548;2023-05-14T01:38:30;0.30;;;0.30;;
7049;SDS011;22263;52.260;10.548;2023-05-14T01:41:01;0.30;;;0.30;;
7049;SDS011;22263;52.260;10.548;2023-05-14T01:43:33;0.30;;;0.30;;
7049;SDS011;22263;52.260;10.548;2023-05-14T01:46:03;0.30;;;0.30;;
7049;SDS011;22263;52.260;10.548;2023-05-14T01:48:33;0.30;;;0.30;;
7049;SDS011;22263;52.260;10.548;2023-05-14T01:51:03;0.30;;;0.30;;
7049;SDS011;22263;52.260;10.548;2023-05-14T01:53:35;0.30;;;0.30;;
7049;SDS011;22263;52.260;10.548;2023-05-14T01:56:06;0.30;;;0.30;;
7049;SDS011;22263;52.260;10.548;2023-05-14T01:58:35;0.30;;;0.30;;
7049;SDS011;22263;52.260;10.548;2023-05-14T02:01:05;0.30;;;0.30;;
7049;SDS011;22263;52.260;10.548;2023-05-14T02:03:35;0.30;;;0.30;;
7049;SDS011;22263;52.260;10.548;2023-05-14T02:06:05;0.40;;;0.40;;
7049;SDS011;22263;52.260;10.548;2023-05-14T02:08:37;0.30;;;0.30;;
7049;SDS011;22263;52.260;10.548;2023-05-14T02:11:07;0.30;;;0.30;;
7049;SDS011;22263;52.260;10.548;2023-05-14T02:13:37;0.30;;;0.30;;
7049;SDS011;22263;52.260;10.548;2023-05-14T02:16:07;0.30;;;0.30;;
7049;SDS011;22263;52.260;10.548;2023-05-14T02:18:38;0.30;;;0.30;;
7049;SDS011;22263;52.260;10.548;2023-05-14T02:21:07;0.30;;;0.30;;
7049;SDS011;22263;52.260;10.548;2023-05-14T02:23:40;0.30;;;0.30;;
7049;SDS011;22263;52.260;10.548;2023-05-14T02:26:10;0.30;;;0.30;;
7049;SDS011;22263;52.260;10.548;2023-05-14T02:28:39;0.30;;;0.30;;
7049;SDS011;22263;52.260;10.548;2023-05-14T02:31:11;0.30;;;0.30;;
7049;SDS011;22263;52.260;10.548;2023-05-14T02:33:43;0.30;;;0.30;;
7049;SDS011;22263;52.260;10.548;2023-05-14T02:36:13;0.30;;;0.30;;
7049;SDS011;22263;52.260;10.548;2023-05-14T02:38:45;0.30;;;0.30;;
7049;SDS011;22263;52.260;10.548;2023-05-14T02:41:15;0.40;;;0.40;;
7049;SDS011;22263;52.260;10.548;2023-05-14T02:43:45;0.30;;;0.30;;
7049;SDS011;22263;52.260;10.548;2023-05-14T02:46:15;0.30;;;0.30;;
7049;SDS011;22263;52.260;10.548;2023-05-14T02:48:47;0.40;;;0.40;;
7049;SDS011;22263;52.260;10.548;2023-05-14T02:51:18;0.30;;;0.30;;
7049;SDS011;22263;52.260;10.548;2023-05-14T02:53:51;0.30;;;0.30;;
7049;SDS011;22263;52.260;10.548;2023-05-14T02:56:21;0.30;;;0.30;;
7049;SDS011;22263;52.260;10.548;2023-05-14T02:58:52;0.30;;;0.30;;
7049;SDS011;22263;52.260;10.548;2023-05-14T03:01:22;0.30;;;0.30;;
7049;SDS011;22263;52.260;10.548;2023-05-14T03:03:52;0.30;;;0.30;;
7049;SDS011;22263;52.260;10.548;2023-05-14T03:06:22;0.30;;;0.30;;
7049;SDS011;22263;52.260;10.548;2023-05-14T03:08:54;0.30;;;0.30;;
7049;SDS011;22263;52.260;10.548;2023-05-14T03:11:24;0.30;;;0.30;;
7049;SDS011;22263;52.260;10.548;2023-05-14T03:13:54;0.30;;;0.30;;
7049;SDS011;22263;52.260;10.548;2023-05-14T03:16:24;0.30;;;0.30;;
7049;SDS011;22263;52.260;10.548;2023-05-14T03:18:53;0.30;;;0.30;;
7049;SDS011;22263;52.260;10.548;2023-05-14T03:21:23;0.30;;;0.30;;
7049;SDS011;22263;52.260;10.548;2023-05-14T03:23:56;0.30;;;0.30;;
7049;SDS011;22263;52.260;10.548;2023-05-14T03:26:26;0.40;;;0.40;;
7049;SDS011;22263;52.260;10.548;2023-05-14T03:28:56;0.30;;;0.30;;
7049;SDS011;22263;52.260;10.548;2023-05-14T03:31:25;0.30;;;0.30;;
7049;SDS011;22263;52.260;10.548;2023-05-14T03:33:55;0.35;;;0.35;;
7049;SDS011;22263;52.260;10.548;2023-05-14T03:36:25;0.38;;;0.38;;
7049;SDS011;22263;52.260;10.548;2023-05-14T03:38:57;0.30;;;0.30;;
7049;SDS011;22263;52.260;10.548;2023-05-14T03:41:27;0.30;;;0.30;;
7049;SDS011;22263;52.260;10.548;2023-05-14T03:43:57;0.30;;;0.30;;
7049;SDS011;22263;52.260;10.548;2023-05-14T03:46:27;0.30;;;0.30;;
7049;SDS011;22263;52.260;10.548;2023-05-14T03:48:56;0.30;;;0.30;;
7049;SDS011;22263;52.260;10.548;2023-05-14T03:51:26;0.35;;;0.35;;
7049;SDS011;22263;52.260;10.548;2023-05-14T03:53:59;0.30;;;0.30;;
7049;SDS011;22263;52.260;10.548;2023-05-14T03:56:29;0.30;;;0.30;;
7049;SDS011;22263;52.260;10.548;2023-05-14T03:58:59;0.30;;;0.30;;
7049;SDS011;22263;52.260;10.548;2023-05-14T04:01:30;0.40;;;0.40;;
7049;SDS011;22263;52.260;10.548;2023-05-14T04:04:00;0.40;;;0.40;;
7049;SDS011;22263;52.260;10.548;2023-05-14T04:06:30;0.30;;;0.30;;
7049;SDS011;22263;52.260;10.548;2023-05-14T04:09:03;0.40;;;0.40;;
7049;SDS011;22263;52.260;10.548;2023-05-14T04:11:33;0.30;;;0.30;;
7049;SDS011;22263;52.260;10.548;2023-05-14T04:14:03;0.40;;;0.40;;
7049;SDS011;22263;52.260;10.548;2023-05-14T04:16:33;0.40;;;0.40;;
7049;SDS011;22263;52.260;10.548;2023-05-14T04:19:03;0.30;;;0.30;;
7049;SDS011;22263;52.260;10.548;2023-05-14T04:21:34;0.40;;;0.40;;
7049;SDS011;22263;52.260;10.548;2023-05-14T04:24:07;0.35;;;0.35;;
7049;SDS011;22263;52.260;10.548;2023-05-14T04:26:37;0.30;;;0.30;;
7049;SDS011;22263;52.260;10.548;2023-05-14T04:29:06;0.30;;;0.30;;
7049;SDS011;22263;52.260;10.548;2023-05-14T04:31:36;0.30;;;0.30;;
7049;SDS011;22263;52.260;10.548;2023-05-14T04:34:06;0.30;;;0.30;;
7049;SDS011;22263;52.260;10.548;2023-05-14T04:36:36;0.30;;;0.30;;
7049;SDS011;22263;52.260;10.548;2023-05-14T04:39:08;0.40;;;0.40;;
7049;SDS011;22263;52.260;10.548;2023-05-14T04:41:38;0.30;;;0.30;;
7049;SDS011;22263;52.260;10.548;2023-05-14T04:44:08;0.40;;;0.40;;
7049;SDS011;22263;52.260;10.548;2023-05-14T04:46:37;0.32;;;0.32;;
7049;SDS011;22263;52.260;10.548;2023-05-14T04:49:07;0.30;;;0.30;;
7049;SDS011;22263;52.260;10.548;2023-05-14T04:51:37;0.30;;;0.30;;
7049;SDS011;22263;52.260;10.548;2023-05-14T04:54:10;0.30;;;0.30;;
7049;SDS011;22263;52.260;10.548;2023-05-14T04:56:40;0.32;;;0.32;;
7049;SDS011;22263;52.260;10.548;2023-05-14T04:59:09;0.40;;;0.40;;
7049;SDS011;22263;52.260;10.548;2023-05-14T05:01:39;0.30;;;0.30;;
7049;SDS011;22263;52.260;10.548;2023-05-14T05:04:09;0.30;;;0.30;;
7049;SDS011;22263;52.260;10.548;2023-05-14T05:06:38;0.30;;;0.30;;
7049;SDS011;22263;52.260;10.548;2023-05-14T05:09:11;0.30;;;0.30;;
7049;SDS011;22263;52.260;10.548;2023-05-14T05:11:41;0.40;;;0.40;;
7049;SDS011;22263;52.260;10.548;2023-05-14T05:14:11;0.30;;;0.30;;
7049;SDS011;22263;52.260;10.548;2023-05-14T05:16:41;0.40;;;0.40;;
7049;SDS011;22263;52.260;10.548;2023-05-14T05:19:10;0.30;;;0.30;;
7049;SDS011;22263;52.260;10.548;2023-05-14T05:21:41;0.30;;;0.30;;
7049;SDS011;22263;52.260;10.548;2023-05-14T05:24:13;0.30;;;0.30;;
7049;SDS011;22263;52.260;10.548;2023-05-14T05:26:43;0.30;;;0.30;;
7049;SDS011;22263;52.260;10.548;2023-05-14T05:29:13;0.32;;;0.32;;
7049;SDS011;22263;52.260;10.548;2023-05-14T05:31:42;0.30;;;0.30;;
7049;SDS011;22263;52.260;10.548;2023-05-14T05:34:12;0.30;;;0.30;;
7049;SDS011;22263;52.260;10.548;2023-05-14T05:36:42;0.20;;;0.20;;
7049;SDS011;22263;52.260;10.548;2023-05-14T05:39:14;0.30;;;0.30;;
7049;SDS011;22263;52.260;10.548;2023-05-14T05:41:44;0.30;;;0.30;;
7049;SDS011;22263;52.260;10.548;2023-05-14T05:44:14;0.30;;;0.30;;
7049;SDS011;22263;52.260;10.548;2023-05-14T05:46:44;0.30;;;0.30;;
7049;SDS011;22263;52.260;10.548;2023-05-14T05:49:14;0.30;;;0.30;;
7049;SDS011;22263;52.260;10.548;2023-05-14T05:51:43;0.30;;;0.30;;
7049;SDS011;22263;52.260;10.548;2023-05-14T05:54:16;0.30;;;0.30;;
7049;SDS011;22263;52.260;10.548;2023-05-14T05:56:46;0.30;;;0.30;;
7049;SDS011;22263;52.260;10.548;2023-05-14T05:59:15;0.30;;;0.30;;
7049;SDS011;22263;52.260;10.548;2023-05-14T06:01:48;0.30;;;0.30;;
7049;SDS011;22263;52.260;10.548;2023-05-14T06:04:18;0.30;;;0.30;;
7049;SDS011;22263;52.260;10.548;2023-05-14T06:06:48;0.30;;;0.30;;
7049;SDS011;22263;52.260;10.548;2023-05-14T06:09:20;0.20;;;0.20;;
7049;SDS011;22263;52.260;10.548;2023-05-14T06:11:50;0.30;;;0.30;;
7049;SDS011;22263;52.260;10.548;2023-05-14T06:14:20;0.30;;;0.30;;
7049;SDS011;22263;52.260;10.548;2023-05-14T06:16:50;0.30;;;0.30;;
7049;SDS011;22263;52.260;10.548;2023-05-14T06:19:20;0.30;;;0.30;;
7049;SDS011;22263;52.260;10.548;2023-05-14T06:21:51;0.30;;;0.30;;
7049;SDS011;22263;52.260;10.548;2023-05-14T06:24:26;0.30;;;0.30;;
7049;SDS011;22263;52.260;10.548;2023-05-14T06:26:56;0.30;;;0.30;;
7049;SDS011;22263;52.260;10.548;2023-05-14T06:29:26;0.20;;;0.20;;
7049;SDS011;22263;52.260;10.548;2023-05-14T06:31:59;0.20;;;0.20;;
7049;SDS011;22263;52.260;10.548;2023-05-14T06:34:30;0.30;;;0.30;;
7049;SDS011;22263;52.260;10.548;2023-05-14T06:37:00;0.20;;;0.20;;
7049;SDS011;22263;52.260;10.548;2023-05-14T06:39:32;0.20;;;0.20;;
7049;SDS011;22263;52.260;10.548;2023-05-14T06:42:02;0.30;;;0.30;;
7049;SDS011;22263;52.260;10.548;2023-05-14T06:44:35;0.30;;;0.30;;
7049;SDS011;22263;52.260;10.548;2023-05-14T06:47:05;0.22;;;0.22;;
7049;SDS011;22263;52.260;10.548;2023-05-14T06:49:35;0.20;;;0.20;;
7049;SDS011;22263;52.260;10.548;2023-05-14T06:52:06;0.30;;;0.30;;
7049;SDS011;22263;52.260;10.548;2023-05-14T06:54:38;0.30;;;0.30;;
7049;SDS011;22263;52.260;10.548;2023-05-14T06:57:08;0.30;;;0.30;;
7049;SDS011;22263;52.260;10.548;2023-05-14T06:59:38;0.20;;;0.20;;
7049;SDS011;22263;52.260;10.548;2023-05-14T07:02:07;0.30;;;0.30;;
7049;SDS011;22263;52.260;10.548;2023-05-14T07:04:37;0.30;;;0.30;;
7049;SDS011;22263;52.260;10.548;2023-05-14T07:07:07;0.20;;;0.20;;
7049;SDS011;22263;52.260;10.548;2023-05-14T07:09:46;0.25;;;0.25;;
7049;SDS011;22263;52.260;10.548;2023-05-14T07:12:19;0.20;;;0.20;;
7049;SDS011;22263;52.260;10.548;2023-05-14T07:14:48;0.20;;;0.20;;
7049;SDS011;22263;52.260;10.548;2023-05-14T07:17:22;0.22;;;0.22;;
7049;SDS011;22263;52.260;10.548;2023-05-14T07:19:52;0.30;;;0.30;;
7049;SDS011;22263;52.260;10.548;2023-05-14T07:22:22;0.20;;;0.20;;
7049;SDS011;22263;52.260;10.548;2023-05-14T07:24:55;0.28;;;0.28;;
7049;SDS011;22263;52.260;10.548;2023-05-14T07:27:24;0.30;;;0.30;;
7049;SDS011;22263;52.260;10.548;2023-05-14T07:29:54;0.30;;;0.30;;
7049;SDS011;22263;52.260;10.548;2023-05-14T07:32:24;0.20;;;0.20;;
7049;SDS011;22263;52.260;10.548;2023-05-14T07:34:53;0.20;;;0.20;;
7049;SDS011;22263;52.260;10.548;2023-05-14T07:37:23;0.20;;;0.20;;
7049;SDS011;22263;52.260;10.548;2023-05-14T07:39:58;0.20;;;0.20;;
7049;SDS011;22263;52.260;10.548;2023-05-14T07:42:28;0.20;;;0.20;;
7049;SDS011;22263;52.260;10.548;2023-05-14T07:45:03;0.20;;;0.20;;
7049;SDS011;22263;52.260;10.548;2023-05-14T07:47:35;0.20;;;0.20;;
7049;SDS011;22263;52.260;10.548;2023-05-14T07:50:05;0.20;;;0.20;;
7049;SDS011;22263;52.260;10.548;2023-05-14T07:52:36;0.20;;;0.20;;
7049;SDS011;22263;52.260;10.548;2023-05-14T07:55:09;0.20;;;0.20;;
7049;SDS011;22263;52.260;10.548;2023-05-14T07:57:39;0.25;;;0.25;;
7049;SDS011;22263;52.260;10.548;2023-05-14T08:00:09;0.20;;;0.20;;
7049;SDS011;22263;52.260;10.548;2023-05-14T08:02:39;0.20;;;0.20;;
7049;SDS011;22263;52.260;10.548;2023-05-14T08:05:09;0.20;;;0.20;;
7049;SDS011;22263;52.260;10.548;2023-05-14T08:07:39;0.20;;;0.20;;
7049;SDS011;22263;52.260;10.548;2023-05-14T08:10:12;0.20;;;0.20;;
7049;SDS011;22263;52.260;10.548;2023-05-14T08:12:42;0.20;;;0.20;;
7049;SDS011;22263;52.260;10.548;2023-05-14T08:15:11;0.20;;;0.20;;
7049;SDS011;22263;52.260;10.548;2023-05-14T08:17:41;0.20;;;0.20;;
7049;SDS011;22263;52.260;10.548;2023-05-14T08:20:11;0.20;;;0.20;;
7049;SDS011;22263;52.260;10.548;2023-05-14T08:22:41;0.17;;;0.17;;
7049;SDS011;22263;52.260;10.548;2023-05-14T08:25:13;0.20;;;0.20;;
7049;SDS011;22263;52.260;10.548;2023-05-14T08:27:43;0.20;;;0.20;;
7049;SDS011;22263;52.260;10.548;2023-05-14T08:30:13;0.20;;;0.20;;
7049;SDS011;22263;52.260;10.548;2023-05-14T08:32:43;0.20;;;0.20;;
7049;SDS011;22263;52.260;10.548;2023-05-14T08:35:13;0.10;;;0.10;;
7049;SDS011;22263;52.260;10.548;2023-05-14T08:37:42;0.10;;;0.10;;
7049;SDS011;22263;52.260;10.548;2023-05-14T08:40:15;0.10;;;0.10;;
7049;SDS011;22263;52.260;10.548;2023-05-14T08:42:45;0.13;;;0.13;;
7049;SDS011;22263;52.260;10.548;2023-05-14T08:45:17;0.10;;;0.10;;
7049;SDS011;22263;52.260;10.548;2023-05-14T08:47:48;0.10;;;0.10;;
7049;SDS011;22263;52.260;10.548;2023-05-14T08:50:18;0.10;;;0.10;;
7049;SDS011;22263;52.260;10.548;2023-05-14T08:52:49;0.20;;;0.20;;
7049;SDS011;22263;52.260;10.548;2023-05-14T08:55:22;0.10;;;0.10;;
7049;SDS011;22263;52.260;10.548;2023-05-14T08:57:52;0.10;;;0.10;;
7049;SDS011;22263;52.260;10.548;2023-05-14T09:00:22;0.10;;;0.10;;
7049;SDS011;22263;52.260;10.548;2023-05-14T09:02:52;0.10;;;0.10;;
7049;SDS011;22263;52.260;10.548;2023-05-14T09:05:23;0.10;;;0.10;;
7049;SDS011;22263;52.260;10.548;2023-05-14T09:07:53;0.20;;;0.20;;
7049;SDS011;22263;52.260;10.548;2023-05-14T09:10:26;0.10;;;0.10;;
7049;SDS011;22263;52.260;10.548;2023-05-14T09:12:56;0.10;;;0.10;;
7049;SDS011;22263;52.260;10.548;2023-05-14T09:15:26;0.20;;;0.20;;
7049;SDS011;22263;52.260;10.548;2023-05-14T09:17:57;0.20;;;0.20;;
7049;SDS011;22263;52.260;10.548;2023-05-14T09:20:27;0.10;;;0.10;;
7049;SDS011;22263;52.260;10.548;2023-05-14T09:22:57;0.10;;;0.10;;
7049;SDS011;22263;52.260;10.548;2023-05-14T09:25:31;0.10;;;0.10;;
7049;SDS011;22263;52.260;10.548;2023-05-14T09:28:04;0.10;;;0.10;;
7049;SDS011;22263;52.260;10.548;2023-05-14T09:30:34;0.10;;;0.10;;
7049;SDS011;22263;52.260;10.548;2023-05-14T09:33:04;0.10;;;0.10;;
7049;SDS011;22263;52.260;10.548;2023-05-14T09:35:36;0.10;;;0.10;;
7049;SDS011;22263;52.260;10.548;2023-05-14T09:38:07;0.10;;;0.10;;
7049;SDS011;22263;52.260;10.548;2023-05-14T09:40:39;0.10;;;0.10;;
7049;SDS011;22263;52.260;10.548;2023-05-14T09:43:08;0.10;;;0.10;;
7049;SDS011;22263;52.260;10.548;2023-05-14T09:45:39;0.10;;;0.10;;
7049;SDS011;22263;52.260;10.548;2023-05-14T09:48:09;0.10;;;0.10;;
7049;SDS011;22263;52.260;10.548;2023-05-14T09:50:40;0.10;;;0.10;;
7049;SDS011;22263;52.260;10.548;2023-05-14T09:53:10;0.10;;;0.10;;
7049;SDS011;22263;52.260;10.548;2023-05-14T09:55:45;0.10;;;0.10;;
7049;SDS011;22263;52.260;10.548;2023-05-14T09:58:15;0.10;;;0.10;;
7049;SDS011;22263;52.260;10.548;2023-05-14T10:00:45;0.10;;;0.10;;
7049;SDS011;22263;52.260;10.548;2023-05-14T10:03:15;0.10;;;0.10;;
7049;SDS011;22263;52.260;10.548;2023-05-14T10:05:48;0.00;;;0.00;;
7049;SDS011;22263;52.260;10.548;2023-05-14T10:08:21;0.10;;;0.10;;
7049;SDS011;22263;52.260;10.548;2023-05-14T10:10:56;0.10;;;0.10;;
7049;SDS011;22263;52.260;10.548;2023-05-14T10:13:30;0.13;;;0.13;;
7049;SDS011;22263;52.260;10.548;2023-05-14T10:16:05;0.00;;;0.00;;
7049;SDS011;22263;52.260;10.548;2023-05-14T10:18:39;0.10;;;0.10;;
7049;SDS011;22263;52.260;10.548;2023-05-14T10:21:12;0.10;;;0.10;;
7049;SDS011;22263;52.260;10.548;2023-05-14T10:23:43;0.10;;;0.10;;
7049;SDS011;22263;52.260;10.548;2023-05-14T10:26:16;0.10;;;0.10;;
7049;SDS011;22263;52.260;10.548;2023-05-14T10:28:49;0.00;;;0.00;;
7049;SDS011;22263;52.260;10.548;2023-05-14T10:31:21;0.10;;;0.10;;
7049;SDS011;22263;52.260;10.548;2023-05-14T10:33:51;0.10;;;0.10;;
7049;SDS011;22263;52.260;10.548;2023-05-14T10:36:21;0.10;;;0.10;;
7049;SDS011;22263;52.260;10.548;2023-05-14T10:38:53;0.10;;;0.10;;
7049;SDS011;22263;52.260;10.548;2023-05-14T10:41:26;0.00;;;0.00;;
7049;SDS011;22263;52.260;10.548;2023-05-14T10:43:56;0.00;;;0.00;;
7049;SDS011;22263;52.260;10.548;2023-05-14T10:46:27;0.00;;;0.00;;
7049;SDS011;22263;52.260;10.548;2023-05-14T10:48:57;0.10;;;0.10;;
7049;SDS011;22263;52.260;10.548;2023-05-14T10:51:27;0.10;;;0.10;;
7049;SDS011;22263;52.260;10.548;2023-05-14T10:53:59;0.10;;;0.10;;
7049;SDS011;22263;52.260;10.548;2023-05-14T10:56:32;0.08;;;0.08;;
7049;SDS011;22263;52.260;10.548;2023-05-14T10:59:01;0.10;;;0.10;;
7049;SDS011;22263;52.260;10.548;2023-05-14T11:01:31;0.10;;;0.10;;
7049;SDS011;22263;52.260;10.548;2023-05-14T11:04:01;0.00;;;0.00;;
7049;SDS011;22263;52.260;10.548;2023-05-14T11:06:32;0.10;;;0.10;;
7049;SDS011;22263;52.260;10.548;2023-05-14T11:09:02;0.10;;;0.10;;
7049;SDS011;22263;52.260;10.548;2023-05-14T11:11:36;0.10;;;0.10;;
7049;SDS011;22263;52.260;10.548;2023-05-14T11:14:06;0.10;;;0.10;;
7049;SDS011;22263;52.260;10.548;2023-05-14T11:16:36;0.10;;;0.10;;
7049;SDS011;22263;52.260;10.548;2023-05-14T11:19:07;0.00;;;0.00;;
7049;SDS011;22263;52.260;10.548;2023-05-14T11:21:37;0.10;;;0.10;;
7049;SDS011;22263;52.260;10.548;2023-05-14T11:24:07;0.10;;;0.10;;
7049;SDS011;22263;52.260;10.548;2023-05-14T11:26:39;0.00;;;0.00;;
7049;SDS011;22263;52.260;10.548;2023-05-14T11:29:09;0.05;;;0.05;;
7049;SDS011;22263;52.260;10.548;2023-05-14T11:31:39;0.10;;;0.10;;
7049;SDS011;22263;52.260;10.548;2023-05-14T11:34:09;0.10;;;0.10;;
7049;SDS011;22263;52.260;10.548;2023-05-14T11:36:38;0.10;;;0.10;;
7049;SDS011;22263;52.260;10.548;2023-05-14T11:39:08;0.10;;;0.10;;
7049;SDS011;22263;52.260;10.548;2023-05-14T11:41:48;0.10;;;0.10;;
7049;SDS011;22263;52.260;10.548;2023-05-14T11:44:18;0.10;;;0.10;;
7049;SDS011;22263;52.260;10.548;2023-05-14T11:46:54;0.10;;;0.10;;
7049;SDS011;22263;52.260;10.548;2023-05-14T11:49:24;0.10;;;0.10;;
7049;SDS011;22263;52.260;10.548;2023-05-14T11:51:58;0.00;;;0.00;;
7049;SDS011;22263;52.260;10.548;2023-05-14T11:54:29;0.10;;;0.10;;
7049;SDS011;22263;52.260;10.548;2023-05-14T11:57:07;0.10;;;0.10;;
7049;SDS011;22263;52.260;10.548;2023-05-14T11:59:38;0.00;;;0.00;;
7049;SDS011;22263;52.260;10.548;2023-05-14T12:02:09;0.10;;;0.10;;
7049;SDS011;22263;52.260;10.548;2023-05-14T12:04:40;0.10;;;0.10;;
7049;SDS011;22263;52.260;10.548;2023-05-14T12:07:14;0.00;;;0.00;;
7049;SDS011;22263;52.260;10.548;2023-05-14T12:09:44;0.03;;;0.03;;
7049;SDS011;22263;52.260;10.548;2023-05-14T12:12:20;0.10;;;0.10;;
7049;SDS011;22263;52.260;10.548;2023-05-14T12:14:50;0.10;;;0.10;;
7049;SDS011;22263;52.260;10.548;2023-05-14T12:17:21;0.10;;;0.10;;
7049;SDS011;22263;52.260;10.548;2023-05-14T12:19:51;0.08;;;0.08;;
7049;SDS011;22263;52.260;10.548;2023-05-14T12:22:22;0.10;;;0.10;;
7049;SDS011;22263;52.260;10.548;2023-05-14T12:24:53;0.10;;;0.10;;
7049;SDS011;22263;52.260;10.548;2023-05-14T12:27:26;0.10;;;0.10;;
7049;SDS011;22263;52.260;10.548;2023-05-14T12:29:58;0.10;;;0.10;;
7049;SDS011;22263;52.260;10.548;2023-05-14T12:32:46;0.10;;;0.10;;
7049;SDS011;22263;52.260;10.548;2023-05-14T12:35:19;0.10;;;0.10;;
7049;SDS011;22263;52.260;10.548;2023-05-14T12:37:50;0.10;;;0.10;;
7049;SDS011;22263;52.260;10.548;2023-05-14T12:40:19;0.10;;;0.10;;
7049;SDS011;22263;52.260;10.548;2023-05-14T12:42:52;0.10;;;0.10;;
7049;SDS011;22263;52.260;10.548;2023-05-14T12:45:22;0.20;;;0.20;;
7049;SDS011;22263;52.260;10.548;2023-05-14T12:47:52;0.10;;;0.10;;
7049;SDS011;22263;52.260;10.548;2023-05-14T12:50:21;0.10;;;0.10;;
7049;SDS011;22263;52.260;10.548;2023-05-14T12:52:52;0.10;;;0.10;;
7049;SDS011;22263;52.260;10.548;2023-05-14T12:55:21;0.10;;;0.10;;
7049;SDS011;22263;52.260;10.548;2023-05-14T12:57:53;0.10;;;0.10;;
7049;SDS011;22263;52.260;10.548;2023-05-14T13:00:23;0.10;;;0.10;;
7049;SDS011;22263;52.260;10.548;2023-05-14T13:02:53;0.13;;;0.13;;
7049;SDS011;22263;52.260;10.548;2023-05-14T13:05:23;0.10;;;0.10;;
7049;SDS011;22263;52.260;10.548;2023-05-14T13:07:53;0.10;;;0.10;;
7049;SDS011;22263;52.260;10.548;2023-05-14T13:10:23;0.10;;;0.10;;
7049;SDS011;22263;52.260;10.548;2023-05-14T13:12:55;0.10;;;0.10;;
7049;SDS011;22263;52.260;10.548;2023-05-14T13:15:25;0.10;;;0.10;;
7049;SDS011;22263;52.260;10.548;2023-05-14T13:17:54;0.10;;;0.10;;
7049;SDS011;22263;52.260;10.548;2023-05-14T13:20:24;0.10;;;0.10;;
7049;SDS011;22263;52.260;10.548;2023-05-14T13:22:55;0.10;;;0.10;;
7049;SDS011;22263;52.260;10.548;2023-05-14T13:25:24;0.00;;;0.00;;
7049;SDS011;22263;52.260;10.548;2023-05-14T13:27:57;0.10;;;0.10;;
7049;SDS011;22263;52.260;10.548;2023-05-14T13:30:26;0.10;;;0.10;;
7049;SDS011;22263;52.260;10.548;2023-05-14T13:32:58;0.10;;;0.10;;
7049;SDS011;22263;52.260;10.548;2023-05-14T13:35:27;0.10;;;0.10;;
7049;SDS011;22263;52.260;10.548;2023-05-14T13:37:57;0.10;;;0.10;;
7049;SDS011;22263;52.260;10.548;2023-05-14T13:40:27;0.10;;;0.10;;
7049;SDS011;22263;52.260;10.548;2023-05-14T13:42:59;0.10;;;0.10;;
7049;SDS011;22263;52.260;10.548;2023-05-14T13:45:29;0.10;;;0.10;;
7049;SDS011;22263;52.260;10.548;2023-05-14T13:47:58;0.10;;;0.10;;
7049;SDS011;22263;52.260;10.548;2023-05-14T13:50:28;0.10;;;0.10;;
7049;SDS011;22263;52.260;10.548;2023-05-14T13:52:58;0.10;;;0.10;;
7049;SDS011;22263;52.260;10.548;2023-05-14T13:55:28;0.10;;;0.10;;
7049;SDS011;22263;52.260;10.548;2023-05-14T13:58:00;0.00;;;0.00;;
7049;SDS011;22263;52.260;10.548;2023-05-14T14:00:30;0.00;;;0.00;;
7049;SDS011;22263;52.260;10.548;2023-05-14T14:03:00;0.10;;;0.10;;
7049;SDS011;22263;52.260;10.548;2023-05-14T14:05:29;0.08;;;0.08;;
7049;SDS011;22263;52.260;10.548;2023-05-14T14:07:59;0.10;;;0.10;;
7049;SDS011;22263;52.260;10.548;2023-05-14T14:10:48;0.00;;;0.00;;
7049;SDS011;22263;52.260;10.548;2023-05-14T14:13:22;0.10;;;0.10;;
7049;SDS011;22263;52.260;10.548;2023-05-14T14:15:53;0.10;;;0.10;;
7049;SDS011;22263;52.260;10.548;2023-05-14T14:18:23;0.10;;;0.10;;
7049;SDS011;22263;52.260;10.548;2023-05-14T14:20:53;0.00;;;0.00;;
7049;SDS011;22263;52.260;10.548;2023-05-14T14:23:22;0.00;;;0.00;;
7049;SDS011;22263;52.260;10.548;2023-05-14T14:26:51;0.10;;;0.10;;
7049;SDS011;22263;52.260;10.548;2023-05-14T14:30:22;0.10;;;0.10;;
7049;SDS011;22263;52.260;10.548;2023-05-14T14:33:50;0.00;;;0.00;;
7049;SDS011;22263;52.260;10.548;2023-05-14T14:37:21;0.10;;;0.10;;
7049;SDS011;22263;52.260;10.548;2023-05-14T14:40:50;0.10;;;0.10;;
7049;SDS011;22263;52.260;10.548;2023-05-14T14:44:18;0.08;;;0.08;;
7049;SDS011;22263;52.260;10.548;2023-05-14T14:47:49;0.10;;;0.10;;
7049;SDS011;22263;52.260;10.548;2023-05-14T14:51:17;0.10;;;0.10;;
7049;SDS011;22263;52.260;10.548;2023-05-14T14:54:45;0.10;;;0.10;;
7049;SDS011;22263;52.260;10.548;2023-05-14T14:58:14;0.10;;;0.10;;
7049;SDS011;22263;52.260;10.548;2023-05-14T15:01:42;0.10;;;0.10;;
7049;SDS011;22263;52.260;10.548;2023-05-14T15:05:15;0.10;;;0.10;;
7049;SDS011;22263;52.260;10.548;2023-05-14T15:08:43;0.10;;;0.10;;
7049;SDS011;22263;52.260;10.548;2023-05-14T15:12:11;0.10;;;0.10;;
7049;SDS011;22263;52.260;10.548;2023-05-14T15:15:40;0.10;;;0.10;;
7049;SDS011;22263;52.260;10.548;2023-05-14T15:19:09;0.20;;;0.20;;
7049;SDS011;22263;52.260;10.548;2023-05-14T15:22:40;0.10;;;0.10;;
7049;SDS011;22263;52.260;10.548;2023-05-14T15:26:09;0.10;;;0.10;;
7049;SDS011;22263;52.260;10.548;2023-05-14T15:29:37;0.10;;;0.10;;